PWSweather.com
Personal Weather Stations
Station Observations

YeovilGB

Lat: 50.949, Lon: -2.627

Elevation: 70

Station Type: Vantage Pro

http://www.yeovil-weather.me.uk/

High Low Average
Temperature 55.6°F13.1°C 42.9°F6.1°C 49.9°F9.9°C
Dew Point 53.5°F11.9°C 40.2°F4.6°C 46.9°F8.3°C
Winds 20.7 mph 33.3 kmh Calm Calm 8.0 mph SSW12.9 kmh SSW
Wind Gusts 32.2 mph51.8 kmh -- 15.0 mph24.1 kmh
Humidity 95% 81% 89%
Pressure 29.54 in1000.3 mb 29.29 in991.9 mb -
Precipitation 0.12 in3.0 mm - -
Hour Temp Dew Point Humidity Winds Wind Gusts Pressure Precip Precip Rate Daily Precip Total
12:00 AM 54.5°F12.5°C 53.1°F11.7°C 95% 10.4 mph SW16.7 kmh SW 15.0 mph24.1 kmh 29.48 in998.3 mb - 0.00 in0.0 mm 0.00 in0.0 mm
12:10 AM 54.6°F12.6°C 53.2°F11.8°C 95% 8.1 mph S13.0 kmh S 11.5 mph18.5 kmh 29.47 in998.0 mb - 0.00 in0.0 mm 0.00 in0.0 mm
12:20 AM 54.6°F12.6°C 53.2°F11.8°C 95% 11.5 mph SSW18.5 kmh SSW 12.7 mph20.4 kmh 29.46 in997.6 mb - 0.00 in0.0 mm 0.00 in0.0 mm
12:30 AM 54.7°F12.6°C 53.3°F11.8°C 95% 9.2 mph SSW14.8 kmh SSW 16.1 mph25.9 kmh 29.46 in997.6 mb - 0.00 in0.0 mm 0.00 in0.0 mm
12:40 AM 54.8°F12.7°C 53.4°F11.9°C 95% 9.2 mph SSW14.8 kmh SSW 16.1 mph25.9 kmh 29.46 in997.6 mb - 0.00 in0.0 mm 0.00 in0.0 mm
12:50 AM 54.8°F12.7°C 53.4°F11.9°C 95% 9.2 mph SW14.8 kmh SW 23.0 mph37.0 kmh 29.46 in997.6 mb - 0.00 in0.0 mm 0.00 in0.0 mm
01:00 AM 54.8°F12.7°C 53.1°F11.7°C 94% 9.2 mph SSW14.8 kmh SSW 21.9 mph35.2 kmh 29.45 in997.3 mb - 0.00 in0.0 mm 0.00 in0.0 mm
01:10 AM 54.9°F12.7°C 53.2°F11.8°C 94% 5.8 mph S9.3 kmh S 15.0 mph24.1 kmh 29.44 in997.0 mb - 0.00 in0.0 mm 0.00 in0.0 mm
01:20 AM 54.9°F12.7°C 53.2°F11.8°C 94% 11.5 mph SW18.5 kmh SW 18.4 mph29.6 kmh 29.44 in997.0 mb - 0.00 in0.0 mm 0.00 in0.0 mm
01:30 AM 55.0°F12.8°C 53.3°F11.8°C 94% 10.4 mph SSW16.7 kmh SSW 26.5 mph42.6 kmh 29.43 in996.6 mb - 0.00 in0.0 mm 0.00 in0.0 mm
01:40 AM 55.1°F12.8°C 53.4°F11.9°C 94% 11.5 mph SSW18.5 kmh SSW 23.0 mph37.0 kmh 29.43 in996.6 mb - 0.00 in0.0 mm 0.00 in0.0 mm
01:50 AM 55.2°F12.9°C 53.5°F11.9°C 94% 20.7 mph SSW33.3 kmh SSW 24.2 mph38.9 kmh 29.41 in995.9 mb - 0.00 in0.0 mm 0.00 in0.0 mm
02:00 AM 55.3°F12.9°C 53.3°F11.8°C 93% 12.7 mph SSW20.4 kmh SSW 19.6 mph31.5 kmh 29.42 in996.3 mb - 0.00 in0.0 mm 0.00 in0.0 mm
02:10 AM 55.4°F13.0°C 53.4°F11.9°C 93% 10.4 mph SSW16.7 kmh SSW 26.5 mph42.6 kmh 29.41 in995.9 mb - 0.00 in0.0 mm 0.00 in0.0 mm
02:20 AM 55.5°F13.1°C 53.5°F11.9°C 93% 13.8 mph SSW22.2 kmh SSW 24.2 mph38.9 kmh 29.42 in996.3 mb - 0.00 in0.0 mm 0.00 in0.0 mm
02:30 AM 55.5°F13.1°C 53.2°F11.8°C 92% 12.7 mph SSW20.4 kmh SSW 20.7 mph33.3 kmh 29.42 in996.3 mb - 0.00 in0.0 mm 0.00 in0.0 mm
02:40 AM 55.5°F13.1°C 53.2°F11.8°C 92% 13.8 mph SW22.2 kmh SW 27.6 mph44.4 kmh 29.42 in996.3 mb - 0.00 in0.0 mm 0.00 in0.0 mm
02:50 AM 55.6°F13.1°C 53.3°F11.8°C 92% 10.4 mph SSW16.7 kmh SSW 19.6 mph31.5 kmh 29.42 in996.3 mb - 0.00 in0.0 mm 0.00 in0.0 mm
03:00 AM 55.5°F13.1°C 53.3°F11.8°C 92% 15.0 mph S24.1 kmh S 21.9 mph35.2 kmh 29.41 in995.9 mb - 0.00 in0.0 mm 0.00 in0.0 mm
03:10 AM 55.4°F13.0°C 53.1°F11.7°C 92% 11.5 mph SW18.5 kmh SW 19.6 mph31.5 kmh 29.40 in995.6 mb - 0.00 in0.0 mm 0.00 in0.0 mm
03:20 AM 55.2°F12.9°C 52.9°F11.6°C 92% 13.8 mph SSW22.2 kmh SSW 26.5 mph42.6 kmh 29.41 in995.9 mb - 0.00 in0.0 mm 0.00 in0.0 mm
03:30 AM 55.1°F12.8°C 52.8°F11.6°C 92% 11.5 mph S18.5 kmh S 18.4 mph29.6 kmh 29.41 in995.9 mb - 0.00 in0.0 mm 0.00 in0.0 mm
03:40 AM 55.0°F12.8°C 52.7°F11.5°C 92% 11.5 mph SSW18.5 kmh SSW 20.7 mph33.3 kmh 29.40 in995.6 mb - 0.00 in0.0 mm 0.00 in0.0 mm
03:50 AM 55.0°F12.8°C 52.7°F11.5°C 92% 10.4 mph SSW16.7 kmh SSW 25.3 mph40.7 kmh 29.40 in995.6 mb - 0.00 in0.0 mm 0.00 in0.0 mm
04:00 AM 55.0°F12.8°C 52.4°F11.3°C 91% 11.5 mph SSW18.5 kmh SSW 32.2 mph51.8 kmh 29.41 in995.9 mb - 0.00 in0.0 mm 0.00 in0.0 mm
04:10 AM 55.0°F12.8°C 52.1°F11.2°C 90% 9.2 mph SSW14.8 kmh SSW 19.6 mph31.5 kmh 29.41 in995.9 mb - 0.00 in0.0 mm 0.00 in0.0 mm
04:20 AM 54.9°F12.7°C 52.0°F11.1°C 90% 11.5 mph SSW18.5 kmh SSW 19.6 mph31.5 kmh 29.40 in995.6 mb - 0.00 in0.0 mm 0.00 in0.0 mm
04:30 AM 54.8°F12.7°C 51.9°F11.1°C 90% 10.4 mph SSW16.7 kmh SSW 19.6 mph31.5 kmh 29.40 in995.6 mb - 0.00 in0.0 mm 0.00 in0.0 mm
04:40 AM 54.8°F12.7°C 51.9°F11.1°C 90% 9.2 mph SW14.8 kmh SW 15.0 mph24.1 kmh 29.40 in995.6 mb - 0.00 in0.0 mm 0.00 in0.0 mm
04:50 AM 54.6°F12.6°C 51.7°F10.9°C 90% 6.9 mph SW11.1 kmh SW 18.4 mph29.6 kmh 29.39 in995.3 mb - 0.00 in0.0 mm 0.00 in0.0 mm
05:00 AM 54.4°F12.4°C 51.8°F11.0°C 91% 6.9 mph SW11.1 kmh SW 12.7 mph20.4 kmh 29.39 in995.3 mb - 0.00 in0.0 mm 0.00 in0.0 mm
05:10 AM 54.2°F12.3°C 51.9°F11.1°C 92% 9.2 mph S14.8 kmh S 12.7 mph20.4 kmh 29.39 in995.3 mb - 0.01 in0.3 mm 0.01 in0.3 mm
05:20 AM 54.0°F12.2°C 51.7°F10.9°C 92% 6.9 mph SSW11.1 kmh SSW 13.8 mph22.2 kmh 29.38 in994.9 mb - 0.02 in0.5 mm 0.02 in0.5 mm
05:30 AM 53.9°F12.2°C 51.9°F11.1°C 93% 9.2 mph SW14.8 kmh SW 19.6 mph31.5 kmh 29.38 in994.9 mb - 0.00 in0.0 mm 0.02 in0.5 mm
05:40 AM 53.7°F12.1°C 51.7°F10.9°C 93% 10.4 mph SSW16.7 kmh SSW 16.1 mph25.9 kmh 29.38 in994.9 mb - 0.00 in0.0 mm 0.02 in0.5 mm
05:50 AM 53.5°F11.9°C 51.5°F10.8°C 93% 10.4 mph SSW16.7 kmh SSW 11.5 mph18.5 kmh 29.37 in994.6 mb - 0.00 in0.0 mm 0.02 in0.5 mm
06:00 AM 53.3°F11.8°C 51.3°F10.7°C 93% 6.9 mph SSW11.1 kmh SSW 11.5 mph18.5 kmh 29.37 in994.6 mb - 0.01 in0.3 mm 0.02 in0.5 mm
06:10 AM 52.9°F11.6°C 50.7°F10.4°C 92% 9.2 mph SW14.8 kmh SW 19.6 mph31.5 kmh 29.38 in994.9 mb - 0.01 in0.3 mm 0.02 in0.5 mm
06:20 AM 52.5°F11.4°C 50.3°F10.2°C 92% 11.5 mph SSW18.5 kmh SSW 16.1 mph25.9 kmh 29.38 in994.9 mb - 0.00 in0.0 mm 0.02 in0.5 mm
06:30 AM 52.3°F11.3°C 50.1°F10.1°C 92% 5.8 mph SW9.3 kmh SW 13.8 mph22.2 kmh 29.39 in995.3 mb - 0.00 in0.0 mm 0.02 in0.5 mm
06:40 AM 51.9°F11.1°C 49.7°F9.8°C 92% 6.9 mph SW11.1 kmh SW 11.5 mph18.5 kmh 29.38 in994.9 mb - 0.00 in0.0 mm 0.02 in0.5 mm
06:50 AM 51.7°F10.9°C 49.5°F9.7°C 92% 5.8 mph SW9.3 kmh SW 9.2 mph14.8 kmh 29.39 in995.3 mb - 0.00 in0.0 mm 0.02 in0.5 mm
07:00 AM 51.7°F10.9°C 49.5°F9.7°C 92% 3.5 mph SSW5.6 kmh SSW 6.9 mph11.1 kmh 29.39 in995.3 mb - 0.00 in0.0 mm 0.02 in0.5 mm
07:10 AM 51.6°F10.9°C 49.4°F9.7°C 92% 2.3 mph S3.7 kmh S 8.1 mph13.0 kmh 29.39 in995.3 mb - 0.00 in0.0 mm 0.02 in0.5 mm
07:20 AM 51.5°F10.8°C 49.3°F9.6°C 92% 2.3 mph SSW3.7 kmh SSW 10.4 mph16.7 kmh 29.39 in995.3 mb - 0.00 in0.0 mm 0.02 in0.5 mm
07:30 AM 51.5°F10.8°C 49.5°F9.7°C 93% 3.5 mph SSW5.6 kmh SSW 9.2 mph14.8 kmh 29.39 in995.3 mb - 0.00 in0.0 mm 0.02 in0.5 mm
07:40 AM 51.3°F10.7°C 49.1°F9.5°C 92% 6.9 mph SSW11.1 kmh SSW 15.0 mph24.1 kmh 29.40 in995.6 mb - 0.00 in0.0 mm 0.02 in0.5 mm
07:50 AM 51.1°F10.6°C 48.6°F9.2°C 91% 5.8 mph S9.3 kmh S 9.2 mph14.8 kmh 29.39 in995.3 mb - 0.00 in0.0 mm 0.02 in0.5 mm
08:00 AM 50.8°F10.4°C 48.0°F8.9°C 90% 4.6 mph SSW7.4 kmh SSW 10.4 mph16.7 kmh 29.40 in995.6 mb - 0.00 in0.0 mm 0.02 in0.5 mm
08:10 AM 50.6°F10.3°C 47.8°F8.8°C 90% 8.1 mph SSW13.0 kmh SSW 10.4 mph16.7 kmh 29.40 in995.6 mb - 0.00 in0.0 mm 0.02 in0.5 mm
08:20 AM 50.6°F10.3°C 47.8°F8.8°C 90% 9.2 mph SSW14.8 kmh SSW 15.0 mph24.1 kmh 29.41 in995.9 mb - 0.00 in0.0 mm 0.02 in0.5 mm
08:30 AM 50.6°F10.3°C 48.1°F8.9°C 91% 2.3 mph SSW3.7 kmh SSW 10.4 mph16.7 kmh 29.41 in995.9 mb - 0.00 in0.0 mm 0.02 in0.5 mm
08:40 AM 50.6°F10.3°C 48.1°F8.9°C 91% 5.8 mph SSW9.3 kmh SSW 12.7 mph20.4 kmh 29.40 in995.6 mb - 0.00 in0.0 mm 0.02 in0.5 mm
08:50 AM 50.6°F10.3°C 48.1°F8.9°C 91% 6.9 mph SSW11.1 kmh SSW 11.5 mph18.5 kmh 29.41 in995.9 mb - 0.00 in0.0 mm 0.02 in0.5 mm
09:00 AM 50.6°F10.3°C 48.4°F9.1°C 92% 6.9 mph SSW11.1 kmh SSW 11.5 mph18.5 kmh 29.40 in995.6 mb - 0.00 in0.0 mm 0.02 in0.5 mm
09:10 AM 50.8°F10.4°C 48.5°F9.2°C 92% 8.1 mph SSW13.0 kmh SSW 10.4 mph16.7 kmh 29.41 in995.9 mb - 0.00 in0.0 mm 0.02 in0.5 mm
09:20 AM 50.8°F10.4°C 48.6°F9.2°C 92% 5.8 mph SW9.3 kmh SW 11.5 mph18.5 kmh 29.40 in995.6 mb - 0.00 in0.0 mm 0.02 in0.5 mm
09:30 AM 51.0°F10.6°C 48.7°F9.3°C 92% 5.8 mph SSW9.3 kmh SSW 12.7 mph20.4 kmh 29.40 in995.6 mb - 0.00 in0.0 mm 0.02 in0.5 mm
09:40 AM 51.0°F10.6°C 48.8°F9.3°C 92% 8.1 mph SW13.0 kmh SW 16.1 mph25.9 kmh 29.40 in995.6 mb - 0.00 in0.0 mm 0.02 in0.5 mm
09:50 AM 51.1°F10.6°C 48.9°F9.4°C 92% 10.4 mph SSW16.7 kmh SSW 19.6 mph31.5 kmh 29.41 in995.9 mb - 0.00 in0.0 mm 0.02 in0.5 mm
10:00 AM 51.1°F10.6°C 48.6°F9.2°C 91% 9.2 mph SW14.8 kmh SW 12.7 mph20.4 kmh 29.41 in995.9 mb - 0.00 in0.0 mm 0.02 in0.5 mm
10:10 AM 51.2°F10.7°C 48.6°F9.2°C 91% 6.9 mph SW11.1 kmh SW 11.5 mph18.5 kmh 29.40 in995.6 mb - 0.00 in0.0 mm 0.02 in0.5 mm
10:20 AM 51.3°F10.7°C 48.8°F9.3°C 91% Calm Calm 1.2 mph1.9 kmh 29.40 in995.6 mb - 0.00 in0.0 mm 0.02 in0.5 mm
10:30 AM 51.5°F10.8°C 48.9°F9.4°C 91% 4.6 mph S7.4 kmh S 9.2 mph14.8 kmh 29.40 in995.6 mb - 0.00 in0.0 mm 0.02 in0.5 mm
10:40 AM 51.5°F10.8°C 49.0°F9.4°C 91% 3.5 mph SSW5.6 kmh SSW 11.5 mph18.5 kmh 29.40 in995.6 mb - 0.00 in0.0 mm 0.02 in0.5 mm
10:50 AM 51.7°F10.9°C 49.2°F9.6°C 91% 6.9 mph SSW11.1 kmh SSW 11.5 mph18.5 kmh 29.40 in995.6 mb - 0.00 in0.0 mm 0.02 in0.5 mm
11:00 AM 51.8°F11.0°C 49.3°F9.6°C 91% 6.9 mph SSW11.1 kmh SSW 9.2 mph14.8 kmh 29.39 in995.3 mb - 0.00 in0.0 mm 0.02 in0.5 mm
11:10 AM 51.9°F11.1°C 49.4°F9.7°C 91% 5.8 mph S9.3 kmh S 10.4 mph16.7 kmh 29.39 in995.3 mb - 0.00 in0.0 mm 0.02 in0.5 mm
11:20 AM 51.9°F11.1°C 49.1°F9.5°C 90% 8.1 mph S13.0 kmh S 11.5 mph18.5 kmh 29.39 in995.3 mb - 0.00 in0.0 mm 0.02 in0.5 mm
11:30 AM 51.9°F11.1°C 48.7°F9.3°C 89% 5.8 mph SSW9.3 kmh SSW 11.5 mph18.5 kmh 29.39 in995.3 mb - 0.00 in0.0 mm 0.02 in0.5 mm
11:40 AM 51.9°F11.1°C 48.5°F9.2°C 88% 4.6 mph SW7.4 kmh SW 10.4 mph16.7 kmh 29.38 in994.9 mb - 0.00 in0.0 mm 0.02 in0.5 mm
11:50 AM 51.8°F11.0°C 47.7°F8.7°C 86% 6.9 mph SSW11.1 kmh SSW 11.5 mph18.5 kmh 29.38 in994.9 mb - 0.00 in0.0 mm 0.02 in0.5 mm
12:00 PM 51.8°F11.0°C 47.7°F8.7°C 86% 3.5 mph SW5.6 kmh SW 8.1 mph13.0 kmh 29.38 in994.9 mb - 0.00 in0.0 mm 0.02 in0.5 mm
12:10 PM 51.7°F10.9°C 47.3°F8.5°C 85% 8.1 mph SSW13.0 kmh SSW 12.7 mph20.4 kmh 29.38 in994.9 mb - 0.00 in0.0 mm 0.02 in0.5 mm
12:20 PM 51.5°F10.8°C 46.8°F8.2°C 84% 10.4 mph SW16.7 kmh SW 15.0 mph24.1 kmh 29.38 in994.9 mb - 0.00 in0.0 mm 0.02 in0.5 mm
12:30 PM 51.1°F10.6°C 46.1°F7.8°C 83% 9.2 mph SSW14.8 kmh SSW 11.5 mph18.5 kmh 29.37 in994.6 mb - 0.00 in0.0 mm 0.02 in0.5 mm
12:40 PM 51.0°F10.6°C 45.7°F7.6°C 82% 11.5 mph SSW18.5 kmh SSW 13.8 mph22.2 kmh 29.37 in994.6 mb - 0.00 in0.0 mm 0.02 in0.5 mm
12:50 PM 50.9°F10.5°C 45.3°F7.4°C 81% 9.2 mph SW14.8 kmh SW 15.0 mph24.1 kmh 29.37 in994.6 mb - 0.00 in0.0 mm 0.02 in0.5 mm
01:00 PM 50.6°F10.3°C 45.3°F7.4°C 82% 6.9 mph SSW11.1 kmh SSW 12.7 mph20.4 kmh 29.37 in994.6 mb - 0.00 in0.0 mm 0.02 in0.5 mm
01:10 PM 49.8°F9.9°C 44.5°F6.9°C 82% 10.4 mph SW16.7 kmh SW 19.6 mph31.5 kmh 29.37 in994.6 mb - 0.01 in0.3 mm 0.03 in0.8 mm
01:20 PM 49.3°F9.6°C 44.7°F7.1°C 84% 6.9 mph SSW11.1 kmh SSW 11.5 mph18.5 kmh 29.36 in994.2 mb - 0.01 in0.3 mm 0.03 in0.8 mm
01:30 PM 49.0°F9.4°C 44.4°F6.9°C 84% 6.9 mph SSW11.1 kmh SSW 10.4 mph16.7 kmh 29.35 in993.9 mb - 0.00 in0.0 mm 0.03 in0.8 mm
01:40 PM 48.9°F9.4°C 44.6°F7.0°C 85% 6.9 mph SSW11.1 kmh SSW 11.5 mph18.5 kmh 29.34 in993.6 mb - 0.00 in0.0 mm 0.03 in0.8 mm
01:50 PM 49.0°F9.4°C 45.0°F7.2°C 86% 5.8 mph SSW9.3 kmh SSW 9.2 mph14.8 kmh 29.34 in993.6 mb - 0.00 in0.0 mm 0.03 in0.8 mm
02:00 PM 49.2°F9.6°C 45.2°F7.3°C 86% 8.1 mph SW13.0 kmh SW 12.7 mph20.4 kmh 29.33 in993.2 mb - 0.00 in0.0 mm 0.03 in0.8 mm
02:10 PM 49.4°F9.7°C 45.4°F7.4°C 86% 8.1 mph S13.0 kmh S 12.7 mph20.4 kmh 29.33 in993.2 mb - 0.00 in0.0 mm 0.03 in0.8 mm
02:20 PM 49.5°F9.7°C 45.5°F7.5°C 86% 9.2 mph SW14.8 kmh SW 11.5 mph18.5 kmh 29.32 in992.9 mb - 0.00 in0.0 mm 0.03 in0.8 mm
02:30 PM 49.5°F9.7°C 45.2°F7.3°C 85% 6.9 mph SSW11.1 kmh SSW 11.5 mph18.5 kmh 29.32 in992.9 mb - 0.00 in0.0 mm 0.03 in0.8 mm
02:40 PM 49.8°F9.9°C 45.5°F7.5°C 85% 6.9 mph S11.1 kmh S 12.7 mph20.4 kmh 29.32 in992.9 mb - 0.00 in0.0 mm 0.03 in0.8 mm
02:50 PM 49.9°F9.9°C 45.6°F7.6°C 85% 9.2 mph S14.8 kmh S 19.6 mph31.5 kmh 29.32 in992.9 mb - 0.00 in0.0 mm 0.03 in0.8 mm
03:10 PM 49.6°F9.8°C 45.3°F7.4°C 85% 8.1 mph SW13.0 kmh SW 16.1 mph25.9 kmh 29.32 in992.9 mb - 0.00 in0.0 mm 0.03 in0.8 mm
03:20 PM 49.6°F9.8°C 45.3°F7.4°C 85% 8.1 mph SSW13.0 kmh SSW 13.8 mph22.2 kmh 29.31 in992.6 mb - 0.00 in0.0 mm 0.03 in0.8 mm
03:30 PM 48.5°F9.2°C 44.2°F6.8°C 85% 12.7 mph SW20.4 kmh SW 25.3 mph40.7 kmh 29.32 in992.9 mb - 0.02 in0.5 mm 0.05 in1.3 mm
03:40 PM 47.1°F8.4°C 43.4°F6.3°C 87% 9.2 mph SW14.8 kmh SW 13.8 mph22.2 kmh 29.31 in992.6 mb - 0.01 in0.3 mm 0.06 in1.5 mm
03:50 PM 46.5°F8.1°C 43.7°F6.5°C 90% 4.6 mph SW7.4 kmh SW 10.4 mph16.7 kmh 29.31 in992.6 mb - 0.02 in0.5 mm 0.07 in1.8 mm
04:00 PM 46.5°F8.1°C 44.0°F6.7°C 91% 6.9 mph SSW11.1 kmh SSW 15.0 mph24.1 kmh 29.30 in992.2 mb - 0.00 in0.0 mm 0.07 in1.8 mm
04:10 PM 46.8°F8.2°C 44.3°F6.8°C 91% 8.1 mph SW13.0 kmh SW 11.5 mph18.5 kmh 29.30 in992.2 mb - 0.01 in0.3 mm 0.08 in2.0 mm
04:20 PM 47.0°F8.3°C 44.2°F6.8°C 90% 9.2 mph SW14.8 kmh SW 16.1 mph25.9 kmh 29.30 in992.2 mb - 0.00 in0.0 mm 0.08 in2.0 mm
04:30 PM 47.2°F8.4°C 43.8°F6.6°C 88% 6.9 mph SSW11.1 kmh SSW 13.8 mph22.2 kmh 29.30 in992.2 mb - 0.00 in0.0 mm 0.08 in2.0 mm
04:40 PM 47.3°F8.5°C 43.6°F6.4°C 87% 6.9 mph SW11.1 kmh SW 13.8 mph22.2 kmh 29.30 in992.2 mb - 0.00 in0.0 mm 0.08 in2.0 mm
04:50 PM 47.2°F8.4°C 42.9°F6.1°C 85% 11.5 mph SW18.5 kmh SW 21.9 mph35.2 kmh 29.30 in992.2 mb - 0.00 in0.0 mm 0.08 in2.0 mm
05:00 PM 47.0°F8.3°C 42.4°F5.8°C 84% 8.1 mph SW13.0 kmh SW 11.5 mph18.5 kmh 29.30 in992.2 mb - 0.00 in0.0 mm 0.08 in2.0 mm
05:10 PM 46.7°F8.2°C 41.8°F5.4°C 83% 10.4 mph SSW16.7 kmh SSW 18.4 mph29.6 kmh 29.29 in991.9 mb - 0.00 in0.0 mm 0.08 in2.0 mm
05:20 PM 46.5°F8.1°C 41.6°F5.3°C 83% 9.2 mph SSW14.8 kmh SSW 13.8 mph22.2 kmh 29.29 in991.9 mb - 0.00 in0.0 mm 0.08 in2.0 mm
05:30 PM 46.2°F7.9°C 41.3°F5.2°C 83% 6.9 mph SW11.1 kmh SW 13.8 mph22.2 kmh 29.29 in991.9 mb - 0.00 in0.0 mm 0.08 in2.0 mm
05:40 PM 46.3°F7.9°C 41.7°F5.4°C 84% 6.9 mph SW11.1 kmh SW 13.8 mph22.2 kmh 29.29 in991.9 mb - 0.00 in0.0 mm 0.08 in2.0 mm
05:50 PM 46.6°F8.1°C 42.0°F5.6°C 84% 10.4 mph SSW16.7 kmh SSW 18.4 mph29.6 kmh 29.29 in991.9 mb - 0.00 in0.0 mm 0.08 in2.0 mm
06:00 PM 46.7°F8.2°C 41.8°F5.4°C 83% 11.5 mph SW18.5 kmh SW 24.2 mph38.9 kmh 29.30 in992.2 mb - 0.00 in0.0 mm 0.08 in2.0 mm
06:10 PM 46.3°F7.9°C 41.4°F5.2°C 83% 9.2 mph SSW14.8 kmh SSW 19.6 mph31.5 kmh 29.29 in991.9 mb - 0.00 in0.0 mm 0.08 in2.0 mm
06:20 PM 45.9°F7.7°C 41.6°F5.3°C 85% 9.2 mph SW14.8 kmh SW 12.7 mph20.4 kmh 29.30 in992.2 mb - 0.00 in0.0 mm 0.08 in2.0 mm
06:30 PM 45.9°F7.7°C 41.9°F5.5°C 86% 9.2 mph SW14.8 kmh SW 12.7 mph20.4 kmh 29.29 in991.9 mb - 0.00 in0.0 mm 0.08 in2.0 mm
06:40 PM 45.8°F7.7°C 41.9°F5.5°C 86% 12.7 mph SSW20.4 kmh SSW 19.6 mph31.5 kmh 29.30 in992.2 mb - 0.00 in0.0 mm 0.08 in2.0 mm
06:50 PM 45.5°F7.5°C 41.6°F5.3°C 86% 8.1 mph SW13.0 kmh SW 13.8 mph22.2 kmh 29.30 in992.2 mb - 0.00 in0.0 mm 0.08 in2.0 mm
07:00 PM 45.1°F7.3°C 41.5°F5.3°C 87% 10.4 mph SW16.7 kmh SW 11.5 mph18.5 kmh 29.30 in992.2 mb - 0.00 in0.0 mm 0.08 in2.0 mm
07:10 PM 44.8°F7.1°C 41.2°F5.1°C 87% 8.1 mph SW13.0 kmh SW 18.4 mph29.6 kmh 29.31 in992.6 mb - 0.00 in0.0 mm 0.08 in2.0 mm
07:20 PM 44.7°F7.1°C 41.4°F5.2°C 88% 8.1 mph SW13.0 kmh SW 16.1 mph25.9 kmh 29.32 in992.9 mb - 0.00 in0.0 mm 0.08 in2.0 mm
07:30 PM 44.8°F7.1°C 41.5°F5.3°C 88% 13.8 mph SW22.2 kmh SW 21.9 mph35.2 kmh 29.33 in993.2 mb - 0.00 in0.0 mm 0.08 in2.0 mm
07:40 PM 45.2°F7.3°C 41.9°F5.5°C 88% 16.1 mph SW25.9 kmh SW 24.2 mph38.9 kmh 29.35 in993.9 mb - 0.01 in0.3 mm 0.09 in2.3 mm
07:50 PM 45.2°F7.3°C 41.6°F5.3°C 87% 11.5 mph WSW18.5 kmh WSW 18.4 mph29.6 kmh 29.37 in994.6 mb - 0.00 in0.0 mm 0.09 in2.3 mm
08:00 PM 45.1°F7.3°C 41.5°F5.3°C 87% 9.2 mph SW14.8 kmh SW 11.5 mph18.5 kmh 29.38 in994.9 mb - 0.00 in0.0 mm 0.09 in2.3 mm
08:10 PM 45.0°F7.2°C 41.4°F5.2°C 87% 8.1 mph SW13.0 kmh SW 13.8 mph22.2 kmh 29.39 in995.3 mb - 0.00 in0.0 mm 0.09 in2.3 mm
08:20 PM 44.9°F7.2°C 41.0°F5.0°C 86% 9.2 mph SW14.8 kmh SW 11.5 mph18.5 kmh 29.39 in995.3 mb - 0.00 in0.0 mm 0.09 in2.3 mm
08:30 PM 44.7°F7.1°C 40.8°F4.9°C 86% 6.9 mph SW11.1 kmh SW 18.4 mph29.6 kmh 29.40 in995.6 mb - 0.00 in0.0 mm 0.09 in2.3 mm
08:40 PM 44.5°F6.9°C 40.5°F4.7°C 86% 10.4 mph SW16.7 kmh SW 13.8 mph22.2 kmh 29.41 in995.9 mb - 0.00 in0.0 mm 0.09 in2.3 mm
08:50 PM 44.5°F6.9°C 40.5°F4.7°C 86% 11.5 mph SSW18.5 kmh SSW 12.7 mph20.4 kmh 29.41 in995.9 mb - 0.00 in0.0 mm 0.09 in2.3 mm
09:00 PM 44.2°F6.8°C 40.9°F4.9°C 88% 4.6 mph SW7.4 kmh SW 11.5 mph18.5 kmh 29.42 in996.3 mb - 0.00 in0.0 mm 0.09 in2.3 mm
09:10 PM 44.1°F6.7°C 41.1°F5.1°C 89% 3.5 mph SW5.6 kmh SW 11.5 mph18.5 kmh 29.43 in996.6 mb - 0.00 in0.0 mm 0.09 in2.3 mm
09:20 PM 44.2°F6.8°C 40.9°F4.9°C 88% 3.5 mph SW5.6 kmh SW 11.5 mph18.5 kmh 29.44 in997.0 mb - 0.00 in0.0 mm 0.09 in2.3 mm
09:30 PM 44.4°F6.9°C 41.1°F5.1°C 88% 5.8 mph SW9.3 kmh SW 11.5 mph18.5 kmh 29.44 in997.0 mb - 0.00 in0.0 mm 0.09 in2.3 mm
09:40 PM 44.6°F7.0°C 41.2°F5.1°C 88% 6.9 mph SW11.1 kmh SW 15.0 mph24.1 kmh 29.45 in997.3 mb - 0.00 in0.0 mm 0.09 in2.3 mm
09:50 PM 44.6°F7.0°C 41.3°F5.2°C 88% 4.6 mph SW7.4 kmh SW 9.2 mph14.8 kmh 29.46 in997.6 mb - 0.00 in0.0 mm 0.09 in2.3 mm
10:00 PM 44.5°F6.9°C 40.6°F4.8°C 86% 13.8 mph SW22.2 kmh SW 20.7 mph33.3 kmh 29.46 in997.6 mb - 0.00 in0.0 mm 0.09 in2.3 mm
10:10 PM 44.6°F7.0°C 40.4°F4.7°C 85% 6.9 mph SW11.1 kmh SW 10.4 mph16.7 kmh 29.48 in998.3 mb - 0.00 in0.0 mm 0.09 in2.3 mm
10:20 PM 44.4°F6.9°C 40.8°F4.9°C 87% 8.1 mph SSW13.0 kmh SSW 20.7 mph33.3 kmh 29.49 in998.6 mb - 0.01 in0.3 mm 0.09 in2.3 mm
10:30 PM 44.1°F6.7°C 40.4°F4.7°C 87% 9.2 mph SW14.8 kmh SW 18.4 mph29.6 kmh 29.50 in999.0 mb - 0.02 in0.5 mm 0.11 in2.8 mm
10:40 PM 43.8°F6.6°C 40.8°F4.9°C 89% 8.1 mph SW13.0 kmh SW 13.8 mph22.2 kmh 29.50 in999.0 mb - 0.00 in0.0 mm 0.11 in2.8 mm
10:50 PM 43.5°F6.4°C 40.4°F4.7°C 89% 3.5 mph SW5.6 kmh SW 12.7 mph20.4 kmh 29.51 in999.3 mb - 0.00 in0.0 mm 0.11 in2.8 mm
11:10 PM 43.1°F6.2°C 40.4°F4.7°C 90% 5.8 mph SW9.3 kmh SW 10.4 mph16.7 kmh 29.52 in999.7 mb - 0.00 in0.0 mm 0.11 in2.8 mm
11:20 PM 43.0°F6.1°C 40.3°F4.6°C 90% 3.5 mph SW5.6 kmh SW 6.9 mph11.1 kmh 29.52 in999.7 mb - 0.00 in0.0 mm 0.11 in2.8 mm
11:30 PM 42.9°F6.1°C 40.2°F4.6°C 90% 1.2 mph SW1.9 kmh SW -- 29.53 in1000.0 mb - 0.00 in0.0 mm 0.11 in2.8 mm
11:40 PM 42.9°F6.1°C 40.2°F4.6°C 90% 3.5 mph SSW5.6 kmh SSW 6.9 mph11.1 kmh 29.54 in1000.3 mb - 0.00 in0.0 mm 0.11 in2.8 mm
11:50 PM 43.0°F6.1°C 40.3°F4.6°C 90% 3.5 mph SW5.6 kmh SW 6.9 mph11.1 kmh 29.54 in1000.3 mb - 0.01 in0.3 mm 0.12 in3.0 mm